Time;durP1;ratioP1;P1;durP2;ratioP2;P2;SDS_P1;SDS_P2;PMS_P1;PMS_P2;Temp;Humidity;BMP_temperature;BMP_pressure;BME280_temperature;BME280_humidity;BME280_pressure;Samples;Min_cycle;Max_cycle;Signal;HPM_P1;HPM_P2
2022/07/09 00:00:58;;;;;;;2.15;1.02;;;;;;;15.92;98.23;102757.09;5045765;28;20076;-73
2022/07/09 00:03:23;;;;;;;2.10;1.17;;;;;;;15.93;97.74;102756.09;5032456;28;20493;-73
2022/07/09 00:05:49;;;;;;;2.45;1.30;;;;;;;15.91;98.49;102751.88;5027932;28;20024;-72
2022/07/09 00:08:14;;;;;;;3.53;1.20;;;;;;;15.92;99.30;102749.09;5033552;28;20120;-72
2022/07/09 00:10:39;;;;;;;1.77;0.90;;;;;;;15.96;100.00;102744.31;5036682;28;20099;-73
2022/07/09 00:13:05;;;;;;;11.40;6.45;;;;;;;15.98;100.00;102745.03;5035943;28;20037;-73
2022/07/09 00:15:30;;;;;;;17.85;10.05;;;;;;;15.94;100.00;102746.28;5032797;28;20503;-72
2022/07/09 00:17:56;;;;;;;6.55;4.40;;;;;;;15.91;100.00;102736.75;5033924;28;20531;-73
2022/07/09 00:20:21;;;;;;;3.28;2.35;;;;;;;15.97;100.00;102746.84;5038233;28;20489;-72
2022/07/09 00:22:46;;;;;;;4.25;2.10;;;;;;;15.98;100.00;102737.91;5032578;28;20021;-73
2022/07/09 00:25:12;;;;;;;2.03;1.35;;;;;;;16.04;100.00;102741.81;5045512;28;20032;-72
2022/07/09 00:27:37;;;;;;;4.00;2.95;;;;;;;16.06;100.00;102739.00;5042637;28;20048;-73
2022/07/09 00:30:03;;;;;;;6.15;3.10;;;;;;;16.07;100.00;102738.00;5045260;28;20040;-73
2022/07/09 00:32:28;;;;;;;3.33;2.80;;;;;;;15.99;100.00;102722.75;5037538;28;20033;-72
2022/07/09 00:34:53;;;;;;;8.88;2.72;;;;;;;16.05;100.00;102722.19;5032264;28;20650;-72
2022/07/09 00:37:19;;;;;;;7.45;4.03;;;;;;;15.98;100.00;102715.72;5037235;28;20036;-72
2022/07/09 00:39:44;;;;;;;8.73;3.33;;;;;;;16.12;100.00;102733.13;5032771;28;20119;-72
2022/07/09 00:42:11;;;;;;;5.13;2.60;;;;;;;16.11;100.00;102728.75;5035788;28;20030;-72
2022/07/09 00:44:37;;;;;;;4.40;3.35;;;;;;;16.13;100.00;102732.13;5035601;28;20018;-72
2022/07/09 00:47:07;;;;;;;14.73;4.90;;;;;;;16.04;100.00;102710.69;5041741;28;20033;-72
2022/07/09 00:49:37;;;;;;;5.93;3.70;;;;;;;16.02;100.00;102723.28;5034052;28;20417;-72
2022/07/09 00:52:04;;;;;;;5.28;3.47;;;;;;;16.02;100.00;102717.97;5036202;28;20283;-73
2022/07/09 00:54:30;;;;;;;5.57;2.78;;;;;;;15.98;100.00;102716.59;5034849;28;20144;-73
2022/07/09 00:56:55;;;;;;;6.65;2.55;;;;;;;15.99;100.00;102718.25;5042549;28;20116;-72
2022/07/09 00:59:22;;;;;;;4.05;3.00;;;;;;;15.99;100.00;102704.94;5042487;28;20063;-72
2022/07/09 01:01:51;;;;;;;4.43;2.70;;;;;;;15.96;100.00;102713.22;5034586;28;20507;-72
2022/07/09 01:04:17;;;;;;;4.35;2.20;;;;;;;15.91;100.00;102704.78;5034736;28;20384;-72
2022/07/09 01:06:43;;;;;;;2.08;1.38;;;;;;;15.93;100.00;102705.50;5033818;28;20117;-72
2022/07/09 01:09:09;;;;;;;4.18;0.80;;;;;;;16.07;100.00;102708.72;5040176;28;20033;-72
2022/07/09 01:11:35;;;;;;;3.45;1.13;;;;;;;16.06;100.00;102696.41;5036235;28;20034;-72
2022/07/09 01:14:00;;;;;;;2.15;1.27;;;;;;;16.11;100.00;102715.44;5040482;28;20031;-72
2022/07/09 01:16:33;;;;;;;4.05;1.67;;;;;;;16.13;100.00;102697.50;5032154;28;20040;-72
2022/07/09 01:18:58;;;;;;;1.40;1.13;;;;;;;16.15;100.00;102707.03;5033271;28;20068;-72
2022/07/09 01:21:24;;;;;;;2.45;1.25;;;;;;;16.15;100.00;102700.88;5039361;28;20093;-72
2022/07/09 01:23:49;;;;;;;3.50;1.27;;;;;;;16.05;100.00;102700.91;5038526;28;20032;-72
2022/07/09 01:26:16;;;;;;;2.40;1.38;;;;;;;16.15;100.00;102706.19;5006359;28;20124;-73
2022/07/09 01:28:41;;;;;;;2.92;1.10;;;;;;;16.10;100.00;102687.16;5031555;28;20033;-72
2022/07/09 01:31:07;;;;;;;4.50;1.10;;;;;;;16.15;100.00;102685.72;5033186;28;20034;-72
2022/07/09 01:33:33;;;;;;;2.85;1.95;;;;;;;16.16;100.00;102691.91;5016133;28;20029;-72
2022/07/09 01:35:58;;;;;;;3.72;2.03;;;;;;;16.16;100.00;102686.59;5040552;28;20032;-72
2022/07/09 01:38:24;;;;;;;3.53;1.58;;;;;;;16.18;100.00;102687.28;5039324;28;20056;-72
2022/07/09 01:40:49;;;;;;;2.15;1.33;;;;;;;16.21;100.00;102694.97;5034841;28;20021;-72
2022/07/09 01:43:15;;;;;;;3.22;1.40;;;;;;;16.16;100.00;102673.28;5040738;28;20114;-72
2022/07/09 01:45:40;;;;;;;2.30;1.25;;;;;;;16.19;100.00;102683.63;5039564;28;20036;-72
2022/07/09 01:48:06;;;;;;;3.80;1.60;;;;;;;16.11;100.00;102667.50;5039799;28;20545;-72
2022/07/09 01:50:31;;;;;;;2.03;1.50;;;;;;;16.19;100.00;102680.97;5036781;28;20148;-72
2022/07/09 01:52:57;;;;;;;2.58;1.58;;;;;;;16.20;100.00;102687.97;5020876;28;20517;-72
2022/07/09 01:55:22;;;;;;;4.85;1.60;;;;;;;16.13;100.00;102666.38;5042264;28;20041;-72
2022/07/09 01:57:48;;;;;;;2.15;1.33;;;;;;;16.25;100.00;102664.41;5031366;28;20039;-72
2022/07/09 02:00:14;;;;;;;2.17;1.60;;;;;;;16.22;100.00;102665.53;5035142;28;20033;-72
2022/07/09 02:02:40;;;;;;;5.13;1.25;;;;;;;16.24;100.00;102674.25;5038073;28;20036;-72
2022/07/09 02:05:05;;;;;;;2.63;1.65;;;;;;;16.21;100.00;102669.19;5040983;28;20421;-72
2022/07/09 02:07:32;;;;;;;2.92;1.92;;;;;;;16.09;100.00;102642.84;5034211;28;20780;-72
2022/07/09 02:09:57;;;;;;;5.80;1.30;;;;;;;16.20;100.00;102650.66;5022886;28;20025;-72
2022/07/09 02:12:23;;;;;;;1.67;1.20;;;;;;;16.05;100.00;102631.66;5034197;28;20543;-72
2022/07/09 02:14:49;;;;;;;2.63;1.40;;;;;;;16.15;100.00;102658.25;5026172;28;20056;-72
2022/07/09 02:17:14;;;;;;;1.88;1.15;;;;;;;16.15;100.00;102659.09;5035607;28;20064;-72
2022/07/09 02:19:40;;;;;;;5.65;1.70;;;;;;;16.16;100.00;102649.28;5040169;28;20553;-72
2022/07/09 02:22:05;;;;;;;3.50;1.67;;;;;;;16.13;100.00;102644.22;5037693;28;20055;-72
2022/07/09 02:24:31;;;;;;;4.47;1.50;;;;;;;16.15;100.00;102648.44;5026342;28;20025;-72
2022/07/09 02:26:56;;;;;;;6.50;1.45;;;;;;;16.16;100.00;102649.28;5036078;28;20406;-72
2022/07/09 02:29:21;;;;;;;2.50;1.88;;;;;;;16.18;100.00;102647.34;5034682;28;20037;-72
2022/07/09 02:31:47;;;;;;;4.05;1.80;;;;;;;16.17;100.00;102645.63;5035288;28;20041;-72
2022/07/09 02:34:12;;;;;;;4.53;1.65;;;;;;;16.17;100.00;102648.28;5038464;28;20037;-72
2022/07/09 02:36:38;;;;;;;6.65;1.48;;;;;;;16.19;100.00;102643.66;5043702;28;20026;-71
2022/07/09 02:39:03;;;;;;;2.38;1.60;;;;;;;16.18;100.00;102647.34;5042954;28;20108;-72
2022/07/09 02:41:29;;;;;;;6.28;1.90;;;;;;;16.16;100.00;102643.97;5034645;28;20018;-72
2022/07/09 02:43:54;;;;;;;3.63;1.42;;;;;;;16.12;100.00;102626.59;5036283;28;20478;-72
2022/07/09 02:46:19;;;;;;;5.90;2.38;;;;;;;16.06;100.00;102620.00;5039994;28;20041;-71
2022/07/09 02:48:45;;;;;;;4.07;1.52;;;;;;;16.00;100.00;102620.56;5037666;28;20074;-72
2022/07/09 02:51:10;;;;;;;4.25;1.23;;;;;;;15.97;100.00;102618.19;5040062;28;20033;-72
2022/07/09 02:53:35;;;;;;;2.20;1.00;;;;;;;15.96;100.00;102624.47;5042506;28;20148;-73
2022/07/09 02:56:01;;;;;;;2.42;1.50;;;;;;;15.95;100.00;102621.00;5035082;28;20041;-73
2022/07/09 02:58:26;;;;;;;1.83;1.20;;;;;;;15.90;100.00;102619.75;5038932;28;20042;-73
2022/07/09 03:00:52;;;;;;;2.85;1.23;;;;;;;15.88;100.00;102619.06;5035503;28;20033;-73
2022/07/09 03:03:17;;;;;;;2.13;1.42;;;;;;;15.85;100.00;102620.16;5038970;28;20025;-73
2022/07/09 03:05:43;;;;;;;2.47;1.00;;;;;;;15.82;100.00;102609.78;5036254;28;20397;-73
2022/07/09 03:08:08;;;;;;;2.30;1.50;;;;;;;15.77;100.00;102615.53;5039771;28;20107;-73
2022/07/09 03:10:34;;;;;;;2.88;1.58;;;;;;;15.68;100.00;102599.53;5006478;28;20086;-73
2022/07/09 03:13:00;;;;;;;1.77;1.27;;;;;;;15.72;100.00;102608.94;5039310;28;20419;-73
2022/07/09 03:15:25;;;;;;;2.40;1.35;;;;;;;15.70;100.00;102616.19;5036482;28;20079;-73
2022/07/09 03:17:51;;;;;;;3.00;1.75;;;;;;;15.68;100.00;102612.84;5026439;28;20029;-73
2022/07/09 03:20:16;;;;;;;3.83;1.55;;;;;;;15.71;100.00;102616.09;5036840;28;20037;-73
2022/07/09 03:22:41;;;;;;;2.42;1.55;;;;;;;15.69;100.00;102604.72;5039332;28;20037;-73
2022/07/09 03:25:08;;;;;;;2.90;0.98;;;;;;;15.59;100.00;102599.41;5036638;28;20032;-73
2022/07/09 03:27:35;;;;;;;2.65;1.30;;;;;;;15.62;100.00;102604.44;5035108;28;20485;-73
2022/07/09 03:30:01;;;;;;;3.00;1.58;;;;;;;15.63;100.00;102600.81;5040603;28;20547;-73
2022/07/09 03:32:27;;;;;;;2.63;0.90;;;;;;;15.63;100.00;102600.81;5037396;28;20033;-73
2022/07/09 03:34:52;;;;;;;3.13;1.02;;;;;;;15.60;100.00;102611.72;5036211;28;20105;-73
2022/07/09 03:37:18;;;;;;;1.90;1.13;;;;;;;15.63;100.00;102599.97;5006059;28;20393;-73
2022/07/09 03:39:44;;;;;;;1.60;1.10;;;;;;;15.50;100.00;102578.13;5038075;28;20393;-73
2022/07/09 03:42:11;;;;;;;2.05;1.02;;;;;;;15.56;100.00;102588.19;5038071;28;20043;-73
2022/07/09 03:44:36;;;;;;;4.72;2.08;;;;;;;15.70;100.00;102605.56;5037799;28;20029;-73
2022/07/09 03:47:02;;;;;;;1.48;0.80;;;;;;;15.71;100.00;102602.78;5037309;28;20039;-73
2022/07/09 03:49:28;;;;;;;4.05;1.35;;;;;;;15.70;100.00;102589.59;5038932;28;20084;-73
2022/07/09 03:51:53;;;;;;;5.25;1.48;;;;;;;15.71;100.00;102593.94;5038605;28;20043;-73
2022/07/09 03:54:18;;;;;;;2.97;1.60;;;;;;;15.72;100.00;102591.19;5034624;28;20080;-73
2022/07/09 03:56:44;;;;;;;2.47;0.95;;;;;;;15.73;100.00;102592.84;5021569;28;20025;-73
2022/07/09 03:59:10;;;;;;;1.73;0.90;;;;;;;15.84;100.00;102597.19;5019124;28;20044;-73
2022/07/09 04:01:35;;;;;;;1.25;0.85;;;;;;;15.88;100.00;102601.25;5039357;28;20060;-73
2022/07/09 04:04:00;;;;;;;1.13;0.63;;;;;;;15.87;100.00;102590.72;5035161;28;20409;-73
2022/07/09 04:06:26;;;;;;;1.75;0.88;;;;;;;15.95;100.00;102588.19;5036364;28;20102;-73
2022/07/09 04:08:51;;;;;;;2.92;1.00;;;;;;;16.00;100.00;102605.44;5039302;28;20112;-73
2022/07/09 04:11:17;;;;;;;2.28;0.80;;;;;;;16.09;100.00;102602.88;5036406;28;20584;-73
2022/07/09 04:13:42;;;;;;;1.58;0.88;;;;;;;16.07;100.00;102610.16;5036595;28;20040;-73
2022/07/09 04:16:08;;;;;;;4.10;1.00;;;;;;;16.09;100.00;102605.53;5040914;28;20036;-73
2022/07/09 04:18:34;;;;;;;5.53;1.20;;;;;;;16.07;100.00;102589.72;5036202;28;20030;-73
2022/07/09 04:21:00;;;;;;;3.08;1.15;;;;;;;16.17;100.00;102608.34;5037732;28;20018;-73
2022/07/09 04:23:26;;;;;;;1.30;0.80;;;;;;;16.19;100.00;102607.22;5039108;28;20496;-73
2022/07/09 04:25:52;;;;;;;1.42;0.85;;;;;;;16.15;100.00;102600.47;5022018;28;20052;-73
2022/07/09 04:28:18;;;;;;;1.33;0.95;;;;;;;16.24;100.00;102609.44;5039260;28;20073;-73
2022/07/09 04:30:44;;;;;;;2.10;1.00;;;;;;;16.30;100.00;102608.03;5037160;28;20029;-73
2022/07/09 04:33:10;;;;;;;3.33;1.27;;;;;;;16.33;100.00;102618.38;5031934;28;20029;-72
2022/07/09 04:35:35;;;;;;;2.60;1.08;;;;;;;16.36;100.00;102616.28;5039134;28;20401;-73
2022/07/09 04:38:01;;;;;;;1.75;0.75;;;;;;;16.40;100.00;102619.50;5035177;28;20036;-73
2022/07/09 04:40:27;;;;;;;2.13;1.15;;;;;;;16.42;100.00;102614.88;5036123;28;20033;-73
2022/07/09 04:42:52;;;;;;;1.73;0.75;;;;;;;16.45;100.00;102618.06;5036637;28;20112;-73
2022/07/09 04:45:17;;;;;;;1.50;1.10;;;;;;;16.48;100.00;102621.44;5035471;28;20048;-73
2022/07/09 04:47:43;;;;;;;4.68;2.30;;;;;;;16.50;100.00;102617.63;5034797;28;20037;-73
2022/07/09 04:50:09;;;;;;;2.92;1.05;;;;;;;16.49;100.00;102602.63;5036810;28;20607;-73
2022/07/09 04:52:34;;;;;;;1.85;1.27;;;;;;;16.58;100.00;102616.91;5035599;28;20043;-73
2022/07/09 04:55:00;;;;;;;2.20;1.23;;;;;;;16.62;100.00;102612.97;5035487;28;20053;-73
2022/07/09 04:57:25;;;;;;;4.20;1.88;;;;;;;16.64;100.00;102605.66;5033393;28;20374;-73
2022/07/09 04:59:50;;;;;;;1.92;1.17;;;;;;;16.68;100.00;102612.38;5038047;28;20037;-73
2022/07/09 05:02:16;;;;;;;2.75;1.40;;;;;;;16.73;100.00;102606.59;5034919;28;20033;-72
2022/07/09 05:04:41;;;;;;;3.75;1.67;;;;;;;16.74;100.00;102602.94;5037502;28;20061;-73
2022/07/09 05:07:07;;;;;;;2.95;0.90;;;;;;;16.76;100.00;102604.47;5035128;28;20030;-73
2022/07/09 05:09:33;;;;;;;0.90;0.60;;;;;;;16.76;100.00;102601.81;5036934;28;20044;-73
2022/07/09 05:11:58;;;;;;;4.72;1.40;;;;;;;16.81;100.00;102596.91;5032634;28;20033;-73
2022/07/09 05:14:24;;;;;;;3.25;1.85;;;;;;;16.81;100.00;102607.59;5030188;28;20075;-72
2022/07/09 05:16:49;;;;;;;7.85;1.98;;;;;;;16.84;100.00;102599.28;5027371;28;20479;-72
2022/07/09 05:19:15;;;;;;;1.20;0.90;;;;;;;16.85;100.00;102602.78;5027991;28;20021;-72
2022/07/09 05:21:41;;;;;;;1.42;0.85;;;;;;;16.85;100.00;102602.78;5032669;28;20029;-72
2022/07/09 05:24:07;;;;;;;3.20;1.15;;;;;;;16.86;100.00;102597.31;5027382;28;20118;-72
2022/07/09 05:26:35;;;;;;;2.55;1.27;;;;;;;16.63;100.00;102545.31;5029890;28;20025;-72
2022/07/09 05:29:02;;;;;;;1.45;0.82;;;;;;;16.99;100.00;102593.44;5029226;28;20409;-73
2022/07/09 05:31:27;;;;;;;2.45;0.95;;;;;;;17.03;100.00;102590.34;5030208;28;20087;-73
2022/07/09 05:33:52;;;;;;;2.88;1.40;;;;;;;17.08;100.00;102592.53;5025652;28;20034;-73
2022/07/09 05:36:18;;;;;;;4.15;1.38;;;;;;;17.13;100.00;102592.91;5029244;28;20025;-73
2022/07/09 05:38:44;;;;;;;2.00;1.00;;;;;;;17.06;100.00;102576.69;5027931;28;20272;-72
2022/07/09 05:41:10;;;;;;;2.15;1.25;;;;;;;17.20;100.00;102580.69;5030834;28;20029;-72
2022/07/09 05:43:36;;;;;;;1.80;0.98;;;;;;;17.27;100.00;102592.41;5013457;28;20401;-73
2022/07/09 05:46:01;;;;;;;3.83;1.05;;;;;;;17.34;100.00;102594.47;5034074;28;20037;-73
2022/07/09 05:48:27;;;;;;;2.85;1.33;;;;;;;17.36;100.00;102597.84;5032508;28;20030;-73
2022/07/09 05:50:52;;;;;;;3.03;1.45;;;;;;;17.41;100.00;102599.03;5033780;28;20033;-73
2022/07/09 05:53:17;;;;;;;1.58;0.88;;;;;;;17.43;100.00;102598.91;5034436;28;20033;-73
2022/07/09 05:55:43;;;;;;;2.00;1.05;;;;;;;17.45;100.00;102594.25;5027580;28;20068;-73
2022/07/09 05:58:08;;;;;;;5.35;1.48;;;;;;;17.46;100.00;102601.25;5036622;28;20048;-73
2022/07/09 06:00:33;;;;;;;1.52;0.82;;;;;;;17.51;100.00;102598.13;5035272;28;20032;-73
2022/07/09 06:02:59;;;;;;;1.80;1.15;;;;;;;17.59;100.00;102596.34;5031330;28;20037;-73
2022/07/09 06:05:24;;;;;;;1.77;0.95;;;;;;;17.70;100.00;102597.94;5033840;28;20030;-73
2022/07/09 06:07:50;;;;;;;3.97;0.70;;;;;;;17.83;100.00;102598.44;5030493;28;20031;-73
2022/07/09 06:10:17;;;;;;;2.65;0.90;;;;;;;18.02;100.00;102601.91;5030674;28;20501;-73
2022/07/09 06:12:42;;;;;;;1.23;1.10;;;;;;;18.22;100.00;102602.53;5032154;28;20037;-73
2022/07/09 06:15:10;;;;;;;3.58;0.93;;;;;;;18.40;100.00;102594.44;5031833;28;20378;-73
2022/07/09 06:17:35;;;;;;;3.13;1.17;;;;;;;18.47;100.00;102585.63;5029685;28;20025;-73
2022/07/09 06:20:01;;;;;;;1.17;0.73;;;;;;;18.53;100.00;102594.00;5034311;28;20041;-73
2022/07/09 06:22:26;;;;;;;5.50;1.40;;;;;;;18.49;100.00;102583.66;5033504;28;20040;-72
2022/07/09 06:24:51;;;;;;;1.88;1.75;;;;;;;18.55;100.00;102595.50;5034970;28;20467;-72
2022/07/09 06:27:17;;;;;;;1.73;1.02;;;;;;;18.59;100.00;102591.53;5031750;28;20036;-72
2022/07/09 06:29:42;;;;;;;4.97;1.23;;;;;;;18.45;99.97;102576.94;5035289;28;20449;-72
2022/07/09 06:32:09;;;;;;;0.95;0.65;;;;;;;18.54;99.94;102593.03;5030554;28;20029;-72
2022/07/09 06:34:35;;;;;;;1.80;1.00;;;;;;;18.31;99.55;102561.47;5004652;28;20040;-72
2022/07/09 06:37:00;;;;;;;3.13;1.08;;;;;;;18.50;99.97;102593.31;5018972;28;20040;-71
2022/07/09 06:42:09;;;;;;;1.30;0.60;;;;;;;18.42;100.00;102597.78;5035544;28;20412;-72
2022/07/09 06:44:35;;;;;;;0.90;0.60;;;;;;;18.36;99.35;102591.28;5031404;28;20025;-72
2022/07/09 06:47:01;;;;;;;1.45;0.57;;;;;;;18.43;98.48;102597.66;5036528;28;20468;-72
2022/07/09 06:49:27;;;;;;;2.72;0.80;;;;;;;18.42;98.14;102585.28;5036964;28;20425;-72
2022/07/09 06:51:52;;;;;;;4.80;0.70;;;;;;;18.46;97.29;102599.16;5033885;28;20032;-72
2022/07/09 06:54:18;;;;;;;2.25;0.80;;;;;;;18.46;97.18;102596.47;5037187;28;20053;-72
2022/07/09 06:56:43;;;;;;;0.80;0.70;;;;;;;18.65;97.47;102598.09;5018923;28;20037;-72
2022/07/09 06:59:09;;;;;;;1.48;0.65;;;;;;;18.78;96.62;102595.81;5038744;28;20048;-72
2022/07/09 07:01:34;;;;;;;2.53;0.55;;;;;;;18.80;95.95;102591.16;5035587;28;20028;-72
2022/07/09 07:03:59;;;;;;;1.00;0.45;;;;;;;18.88;95.10;102587.69;5037940;28;20028;-72
2022/07/09 07:06:25;;;;;;;3.95;0.57;;;;;;;18.99;94.17;102586.50;5037233;28;20037;-72
2022/07/09 07:08:50;;;;;;;2.40;0.77;;;;;;;19.14;94.09;102592.94;5022818;28;20037;-72
2022/07/09 07:11:16;;;;;;;0.90;0.60;;;;;;;19.26;93.66;102580.06;5036831;28;20401;-72
2022/07/09 07:13:41;;;;;;;2.20;0.93;;;;;;;19.66;92.62;102600.69;5020422;28;20499;-72
2022/07/09 07:16:07;;;;;;;0.98;0.50;;;;;;;19.93;90.95;102594.16;5020148;28;20033;-72
2022/07/09 07:18:32;;;;;;;2.90;1.23;;;;;;;20.03;88.77;102588.59;5040587;28;20115;-72
2022/07/09 07:20:58;;;;;;;6.55;0.85;;;;;;;20.11;88.15;102585.06;5022098;28;20557;-72
2022/07/09 07:23:23;;;;;;;2.05;0.80;;;;;;;20.13;87.62;102583.88;5038935;28;20042;-72
2022/07/09 07:25:48;;;;;;;0.38;0.30;;;;;;;20.44;88.20;102596.53;5019541;28;20037;-72
2022/07/09 07:28:14;;;;;;;0.60;0.52;;;;;;;20.63;87.27;102606.06;5034454;28;20072;-72
2022/07/09 07:30:39;;;;;;;3.22;1.23;;;;;;;21.14;85.31;102602.94;5037288;28;20033;-72
2022/07/09 07:33:04;;;;;;;1.17;0.50;;;;;;;21.47;83.36;102592.00;5038361;28;20595;-72
2022/07/09 07:35:30;;;;;;;2.30;0.90;;;;;;;21.76;79.89;102616.28;5035296;28;20096;-72
2022/07/09 07:37:57;;;;;;;1.85;0.80;;;;;;;22.02;77.92;102592.69;5036727;28;20021;-72
2022/07/09 07:40:22;;;;;;;2.20;0.68;;;;;;;21.79;78.04;102604.31;5036448;28;20115;-72
2022/07/09 07:42:49;;;;;;;2.00;0.90;;;;;;;21.94;79.05;102607.06;5037162;28;20009;-72
2022/07/09 07:45:14;;;;;;;1.00;0.40;;;;;;;21.68;78.71;102602.91;5034711;28;20501;-72
2022/07/09 07:47:39;;;;;;;3.08;1.23;;;;;;;21.63;79.64;102613.38;5037910;28;20031;-72
2022/07/09 07:50:05;;;;;;;3.50;0.50;;;;;;;21.53;79.28;102607.41;5034581;28;20120;-72
2022/07/09 07:52:31;;;;;;;1.85;0.57;;;;;;;21.41;79.63;102615.06;5022091;28;20036;-72
2022/07/09 07:54:56;;;;;;;1.42;0.60;;;;;;;21.17;79.77;102603.44;5033771;28;20045;-72
2022/07/09 07:57:22;;;;;;;3.00;0.73;;;;;;;21.13;80.13;102612.03;5032570;28;20037;-72
2022/07/09 07:59:47;;;;;;;0.63;0.32;;;;;;;20.99;79.91;102600.19;5037108;28;20049;-72
2022/07/09 08:02:13;;;;;;;3.88;0.77;;;;;;;20.92;80.13;102605.41;5035149;28;20029;-72
2022/07/09 08:04:38;;;;;;;1.15;0.50;;;;;;;20.88;81.12;102608.63;5037242;28;20039;-72
2022/07/09 08:07:04;;;;;;;2.38;0.30;;;;;;;20.96;80.85;102597.84;5019205;28;20494;-72
2022/07/09 08:09:30;;;;;;;3.65;1.08;;;;;;;21.06;79.65;102609.22;5036731;28;20033;-72
2022/07/09 08:11:55;;;;;;;2.60;0.82;;;;;;;21.00;80.54;102606.41;5037236;28;20052;-72
2022/07/09 08:14:21;;;;;;;2.38;0.70;;;;;;;21.22;80.48;102623.53;5037234;28;20397;-73
2022/07/09 08:16:46;;;;;;;4.00;0.88;;;;;;;22.04;78.18;102604.94;5035385;28;20397;-73
2022/07/09 08:19:13;;;;;;;2.25;0.60;;;;;;;22.74;75.53;102616.28;5037580;28;20152;-73
2022/07/09 08:21:39;;;;;;;3.28;0.77;;;;;;;23.49;70.83;102608.81;5040044;28;20484;-73
2022/07/09 08:24:06;;;;;;;3.50;0.50;;;;;;;23.42;71.00;102623.06;5020143;28;20033;-73
2022/07/09 08:26:31;;;;;;;1.52;0.60;;;;;;;23.12;71.19;102613.41;5036507;28;20029;-73
2022/07/09 08:28:57;;;;;;;0.73;0.43;;;;;;;22.95;71.83;102592.09;5023081;28;20029;-72
2022/07/09 08:31:23;;;;;;;2.28;0.47;;;;;;;23.63;70.28;102616.00;5017795;28;20039;-73
2022/07/09 08:33:50;;;;;;;4.38;0.80;;;;;;;23.94;66.25;102618.34;5039020;28;20017;-73
2022/07/09 08:36:15;;;;;;;3.90;0.75;;;;;;;23.53;68.16;102616.31;5034766;28;20037;-73
2022/07/09 08:38:41;;;;;;;1.23;0.68;;;;;;;23.26;68.23;102626.03;5021725;28;20049;-73
2022/07/09 08:41:07;;;;;;;0.98;0.38;;;;;;;23.59;67.62;102620.94;5041139;28;20031;-73
2022/07/09 08:43:37;;;;;;;0.63;0.40;;;;;;;24.51;65.55;102611.03;5035833;28;20018;-73
2022/07/09 08:46:03;;;;;;;1.52;0.50;;;;;;;24.73;64.61;102616.34;5038624;28;20029;-73
2022/07/09 08:48:33;;;;;;;1.23;0.50;;;;;;;24.44;65.14;102623.66;5035044;28;20101;-73
2022/07/09 08:51:00;;;;;;;2.30;0.43;;;;;;;24.21;65.54;102614.00;5023082;28;20140;-73
2022/07/09 08:53:27;;;;;;;0.95;0.60;;;;;;;23.97;66.56;102620.66;5033950;28;20032;-73
2022/07/09 08:55:53;;;;;;;4.75;0.70;;;;;;;23.72;68.33;102609.44;5029295;28;20107;-73
2022/07/09 08:58:19;;;;;;;3.22;0.73;;;;;;;23.35;66.62;102614.09;5019410;28;20033;-73
2022/07/09 09:00:47;;;;;;;1.30;0.50;;;;;;;23.61;67.28;102618.88;5041522;28;20024;-73
2022/07/09 09:03:13;;;;;;;3.80;0.57;;;;;;;23.65;67.23;102597.78;5040770;28;20349;-73
2022/07/09 09:05:38;;;;;;;1.77;0.40;;;;;;;24.06;66.24;102604.31;5039825;28;20040;-73
2022/07/09 09:08:17;;;;;;;1.45;0.60;;;;;;;24.02;66.18;102617.38;5017736;28;20036;-73
2022/07/09 09:10:48;;;;;;;3.60;0.70;;;;;;;23.83;66.68;102621.59;5033447;28;20037;-73
2022/07/09 09:13:17;;;;;;;0.85;0.43;;;;;;;23.44;67.03;102613.97;5034649;28;20060;-73
2022/07/09 09:15:43;;;;;;;0.65;0.50;;;;;;;23.21;67.90;102596.13;5037575;28;20152;-73
2022/07/09 09:18:09;;;;;;;3.10;0.80;;;;;;;23.23;68.09;102612.91;5038858;28;20119;-74
2022/07/09 09:20:35;;;;;;;3.72;1.27;;;;;;;23.03;68.97;102619.97;5038031;28;20044;-74
2022/07/09 09:23:02;;;;;;;2.25;0.50;;;;;;;23.18;69.64;102597.34;5035420;28;20533;-73
2022/07/09 09:25:28;;;;;;;2.42;0.70;;;;;;;23.21;69.02;102612.28;5003281;28;20153;-73
2022/07/09 09:27:55;;;;;;;2.05;0.95;;;;;;;23.21;69.32;102612.28;5039758;28;20550;-73
2022/07/09 09:30:21;;;;;;;3.22;0.90;;;;;;;23.27;69.41;102614.19;5041208;28;20033;-73
2022/07/09 09:33:01;;;;;;;3.97;0.90;;;;;;;23.34;70.09;102611.56;5038831;28;20029;-73
2022/07/09 09:35:29;;;;;;;2.97;0.50;;;;;;;23.31;69.11;102614.66;5036807;28;20041;-74
2022/07/09 09:37:55;;;;;;;2.70;0.73;;;;;;;22.96;69.38;102604.53;5034907;28;20013;-73
2022/07/09 09:40:22;;;;;;;3.15;1.10;;;;;;;23.21;69.93;102620.34;5033629;28;20035;-73
2022/07/09 09:42:48;;;;;;;5.75;1.08;;;;;;;23.17;70.55;102619.91;5035989;28;20489;-73
2022/07/09 09:45:15;;;;;;;1.92;0.80;;;;;;;23.13;70.41;102615.94;5034614;28;20040;-73
2022/07/09 09:47:45;;;;;;;3.08;0.73;;;;;;;23.15;70.68;102613.06;5042374;28;20232;-73
2022/07/09 09:50:17;;;;;;;3.90;0.95;;;;;;;23.20;70.41;102626.78;5033272;28;20525;-73
2022/07/09 09:52:45;;;;;;;5.90;0.70;;;;;;;23.87;69.90;102627.44;5033717;28;20171;-73
2022/07/09 09:55:12;;;;;;;5.18;0.93;;;;;;;24.56;68.61;102630.19;5032180;28;20264;-73
2022/07/09 09:57:39;;;;;;;2.08;0.68;;;;;;;24.79;66.30;102629.88;5031733;28;20037;-73
2022/07/09 10:00:05;;;;;;;4.22;1.92;;;;;;;24.14;72.71;102634.66;5030390;28;20615;-73
2022/07/09 10:02:31;;;;;;;6.05;0.80;;;;;;;23.36;73.89;102636.47;5029810;28;20393;-73
2022/07/09 10:04:57;;;;;;;1.83;0.68;;;;;;;22.74;75.75;102635.94;5030872;28;20029;-73
2022/07/09 10:07:22;;;;;;;5.22;0.60;;;;;;;22.49;77.90;102639.94;5032411;28;20025;-73
2022/07/09 10:09:56;;;;;;;2.75;0.52;;;;;;;22.53;77.76;102633.19;5034229;28;20324;-73
2022/07/09 10:12:35;;;;;;;3.75;0.82;;;;;;;22.63;78.05;102635.59;5036090;28;20060;-72
2022/07/09 10:15:01;;;;;;;1.70;0.40;;;;;;;22.29;77.74;102635.13;5033825;28;20048;-72
2022/07/09 10:17:27;;;;;;;2.80;0.73;;;;;;;22.72;78.27;102639.84;5029990;28;20393;-72
2022/07/09 10:20:06;;;;;;;2.83;1.25;;;;;;;23.58;76.16;102656.16;5033087;28;20497;-72
2022/07/09 10:22:36;;;;;;;2.55;0.68;;;;;;;24.07;70.25;102654.56;5037736;28;20452;-73
2022/07/09 10:25:01;;;;;;;1.92;0.85;;;;;;;24.75;68.56;102652.91;5031993;28;20099;-72
2022/07/09 10:27:26;;;;;;;0.70;0.52;;;;;;;24.97;68.81;102650.91;5036848;28;20018;-72
2022/07/09 10:29:57;;;;;;;0.90;0.43;;;;;;;25.24;67.86;102659.16;5037881;28;20108;-73
2022/07/09 10:32:32;;;;;;;1.40;0.52;;;;;;;25.30;65.66;102646.66;5035177;28;20025;-73
2022/07/09 10:35:05;;;;;;;3.00;0.80;;;;;;;25.27;65.32;102666.00;5038699;28;20026;-72
2022/07/09 10:37:31;;;;;;;2.00;0.60;;;;;;;25.23;65.61;102665.56;5039787;28;20060;-72
2022/07/09 10:40:04;;;;;;;1.98;0.52;;;;;;;24.99;65.43;102681.25;5034921;28;20026;-72
2022/07/09 10:42:29;;;;;;;3.00;0.63;;;;;;;24.79;64.87;102677.66;5043084;28;20452;-72
2022/07/09 10:44:54;;;;;;;1.98;0.60;;;;;;;25.20;64.67;102663.28;5037527;28;20071;-72
2022/07/09 10:47:20;;;;;;;1.13;0.50;;;;;;;25.35;63.00;102673.94;5022063;28;20374;-72
2022/07/09 10:49:45;;;;;;;1.45;0.47;;;;;;;24.92;61.15;102680.41;5038707;28;20027;-72
2022/07/09 10:52:11;;;;;;;2.30;0.75;;;;;;;24.50;61.30;102682.28;5019228;28;20395;-72
2022/07/09 10:54:49;;;;;;;0.47;0.22;;;;;;;24.80;62.94;102671.19;5040890;28;20048;-72
2022/07/09 10:57:15;;;;;;;2.20;0.30;;;;;;;25.22;61.22;102672.03;5036649;28;20085;-72
2022/07/09 10:59:46;;;;;;;2.33;0.35;;;;;;;25.70;61.29;102682.72;5021756;28;20127;-72
2022/07/09 11:02:21;;;;;;;2.92;0.60;;;;;;;25.94;59.43;102688.59;5041698;28;20026;-72
2022/07/09 11:04:51;;;;;;;2.10;0.50;;;;;;;25.91;58.29;102680.88;5040542;28;20033;-72
2022/07/09 11:07:22;;;;;;;2.15;0.70;;;;;;;26.04;57.35;102691.69;5029123;28;20025;-73
2022/07/09 11:09:47;;;;;;;3.90;0.57;;;;;;;26.76;55.64;102680.94;5031383;28;20029;-73
2022/07/09 11:12:21;;;;;;;4.63;0.73;;;;;;;27.09;54.14;102697.09;5032230;28;20033;-73
2022/07/09 11:14:48;;;;;;;1.23;0.52;;;;;;;27.18;53.63;102690.34;5032111;28;20029;-73
2022/07/09 11:17:18;;;;;;;1.48;0.60;;;;;;;27.00;53.35;102696.50;5029586;28;20029;-73